Fort Morgan, CO

9:07 PM MST on February 26, 2015 (GMT -0700)
Akron-Washington County | Change Station
CLOSE
Current Station
Airport
Location: Akron,
Elevation: 4662 ft
Nearby Weather Stations

Elev 4662 ft 40.17 °N, 103.21 °W | Updated 14 minutes ago

Overcast
Overcast
12 °F
Feels Like -2 °F
N
12
Wind Variable Wind from SE

Today
High -- | Low -- °F
--% Chance of Precip.
Yesterday
High -- | Low -- °F
Precip. -- in
6:33 AM 5:43 PM
Waxing Gibbous, 65% visible
Pressure 30.44 in
Visibility 5.0 miles
Clouds Overcast 4400 ft
Windchill -2 °F
Dew Point 8 °F
Humidity 84%
Rainfall 0.00 in
Snow Depth Not available.
UV 0 out of 12
Pollen .60 out of 12
Air Quality Not available.
Flu Activity Not available.
METAR KAKO 270353Z AUTO 13010KT 5SM BR OVC044 M11/M13 A3022 RMK AO2 SLP307 T11111133

More Conditions Fewer Conditions

Pressure 30.44 in
Visibility 5.0 miles
Clouds Overcast 4400 ft
Windchill -2 °F
Dew Point 8 °F
Humidity 84%
Rainfall 0.00 in
Snow Depth Not available.
UV 0 out of 12
Pollen .60 out of 12
Air Quality Not available.
Flu Activity Not available.
METAR KAKO 270353Z AUTO 13010KT 5SM BR OVC044 M11/M13 A3022 RMK AO2 SLP307 T11111133

More Conditions Fewer Conditions

Nowcast | as of 7:28 PM MST on February 26, 2015

Areas of light snow will will continue across the northeast plains of Colorado...mainly south and west of a Sterling to Akron line this evening. Snowfall rates of one tenth to one quarter inch will be possible.

×

10-Day Weather Forecast

Almanac

Astronomy

Feb. 26, 2015 Rise Set
Actual Time
Civil Twilight
Nautical Twilight
Astronomical Twilight
Moon
Length of Visible Light
Length of Day
Tomorrow will be .
, % of the Moon is Illuminated

Today's Extremes

State Highs State Lows

Community

WunderPhotos

Upload Photos

1,800,609 photos uploaded!

WunderBlogs® & News

Nearby

Air Quality

  Air Quality AQ Index Pollutant
Not available.

Snow Depth

Station Depth Elevation

Earthquake Activity

City Distance Mag. Time & Date
Minimum magnitude displayed is 2.5.

Coastal Water Temperatures

Place Temperature

Nearby Weather Stations